^^

..:: Storico WU ::..




Lo storico viene creato da WUnderground con i dati che la stazione Meteomincio invia al loro server. L' aggiornamento viene fatto ogni 5 minuti circa, tuttavia possono esserci intervalli pi¨ ampi a causa di errori, interruzioni di servizio o problemi nell' invio tramite FTP.


Storico stazione MeteoMincio
Giorno Sommario per Ottobre 02, 2022 Unità:  Inglese    Metrico   Entrambi
Giorno Settimana Mese Anno
  Max: Min: Media:
Temperatura: 76.3 °F 52.2 °F 62.8 °F
Dew Point: 62.4 °F 49.8 °F 56.7 °F
Umidità: 93% 60.3% 81%
Velocità vento: 5.2mph 0mph 1.7mph
Raffica: 8.1mph - -
Direzione- - SSW
Pressione: 30.2 in 30 in -
Precipitazioni: 0 in    
 
 
Tabulato Dati per Ottobre 02, 2022
Ora Temperatura Dew Point Pressione Direzione Velocità vento Raffica Umidità Intensità pioggia (oraria) Info solare Situazione
00:03 59 °F 52.5 °F 30 in WSW 3.2 mph 5 mph 79% 0 in 0 W/m2
00:09 58.5 °F 52.5 °F 30 in West 3.1 mph 5 mph 80.3% 0 in 0 W/m2
00:13 58.3 °F 52.5 °F 30 in West 2.7 mph 5 mph 81% 0 in 0 W/m2
00:18 58.3 °F 52.5 °F 30 in West 2.4 mph 5 mph 81% 0 in 0 W/m2
00:23 58.5 °F 52.5 °F 30 in West 2.5 mph 3.5 mph 81% 0 in 0 W/m2
00:26 58.5 °F 52.5 °F 30 in West 2.4 mph 3.5 mph 81% 0 in 0 W/m2
00:33 58.5 °F 52.7 °F 30 in West 2.4 mph 4 mph 81% 0 in 0 W/m2
00:39 59 °F 53.1 °F 30 in West 2.6 mph 5 mph 81% 0 in 0 W/m2
00:42 58.8 °F 53.1 °F 30 in West 2.9 mph 6 mph 81.5% 0 in 0 W/m2
00:48 58.5 °F 53.1 °F 30 in West 3.7 mph 6 mph 82% 0 in 0 W/m2
00:53 58.5 °F 52.9 °F 30 in WNW 4 mph 6 mph 82% 0 in 0 W/m2
00:57 58.5 °F 53.2 °F 30 in West 3.6 mph 6 mph 82.6% 0 in 0 W/m2
01:04 58.5 °F 53.2 °F 30 in West 3.8 mph 8.1 mph 83% 0 in 0 W/m2
01:08 58.5 °F 53.2 °F 30 in West 4.7 mph 8.1 mph 83% 0 in 0 W/m2
01:13 58.3 °F 53.4 °F 30 in West 5.2 mph 8.1 mph 83.6% 0 in 0 W/m2
01:19 58.3 °F 53.4 °F 30 in WNW 5.2 mph 8.1 mph 84% 0 in 0 W/m2
01:22 58.5 °F 53.4 °F 30 in WNW 4.8 mph 8.1 mph 83.5% 0 in 0 W/m2
01:27 58.6 °F 53.4 °F 30 in WNW 4.7 mph 6 mph 83% 0 in 0 W/m2
01:32 58.8 °F 53.6 °F 30 in WNW 4.9 mph 6 mph 83% 0 in 0 W/m2
01:38 58.8 °F 53.6 °F 30.1 in West 5 mph 7 mph 83% 0 in 0 W/m2
01:44 58.8 °F 53.6 °F 30.1 in West 5.1 mph 8.1 mph 83% 0 in 0 W/m2
01:47 58.6 °F 53.4 °F 30.1 in West 5 mph 8.1 mph 83% 0 in 0 W/m2
01:54 58.5 °F 53.4 °F 30.1 in West 5 mph 8.1 mph 83% 0 in 0 W/m2
01:56 58.6 °F 53.4 °F 30.1 in WSW 5 mph 8.1 mph 83% 0 in 0 W/m2
02:00 58.6 °F 53.4 °F 30.1 in WSW 5 mph 8.1 mph 83% 0 in 0 W/m2
02:08 58.6 °F 53.4 °F 30.1 in WSW 5 mph 8.1 mph 83% 0 in 0 W/m2
02:13 58.3 °F 53.4 °F 30.1 in West 4.8 mph 8.1 mph 83.9% 0 in 0 W/m2
02:18 57.7 °F 53.2 °F 30.1 in West 4.7 mph 6 mph 85% 0 in 0 W/m2
02:23 57.6 °F 53.1 °F 30.1 in WSW 4.3 mph 6 mph 85% 0 in 0 W/m2
02:28 57.4 °F 52.9 °F 30.1 in WSW 3.3 mph 6 mph 85% 0 in 0 W/m2
02:32 57 °F 52.7 °F 30.1 in West 2.7 mph 5 mph 85.4% 0 in 0 W/m2
02:39 56.8 °F 52.7 °F 30.1 in WSW 2.9 mph 5 mph 86% 0 in 0 W/m2
02:42 56.7 °F 52.5 °F 30.1 in West 3.4 mph 5 mph 86% 0 in 0 W/m2
02:48 56.5 °F 52.5 °F 30.1 in West 3.8 mph 5 mph 86% 0 in 0 W/m2
02:53 56.3 °F 52.3 °F 30.1 in WNW 4 mph 5 mph 86% 0 in 0 W/m2
02:58 56.5 °F 52.3 °F 30.1 in West 3.5 mph 5 mph 86% 0 in 0 W/m2
03:02 56.3 °F 52.3 °F 30.1 in WSW 2.8 mph 5 mph 86.8% 0 in 0 W/m2
03:06 56.1 °F 52.3 °F 30.1 in WSW 2.6 mph 5 mph 87% 0 in 0 W/m2
03:14 55.8 °F 52 °F 30.1 in WSW 2.4 mph 3.5 mph 87% 0 in 0 W/m2
03:18 55.6 °F 51.6 °F 30.1 in West 1.7 mph 3.5 mph 87% 0 in 0 W/m2
03:24 55.2 °F 51.6 °F 30.1 in West 1 mph 3.5 mph 87.5% 0 in 0 W/m2
03:29 55 °F 51.6 °F 30.1 in West 0.6 mph 4 mph 88% 0 in 0 W/m2
03:33 54.9 °F 51.3 °F 30.1 in West 2.5 mph 4 mph 88% 0 in 0 W/m2
03:38 54.7 °F 51.3 °F 30.1 in West 3.4 mph 4 mph 88.5% 0 in 0 W/m2
03:43 54.5 °F 51.3 °F 30.1 in West 3.3 mph 4 mph 89% 0 in 0 W/m2
03:48 54.3 °F 51.3 °F 30.1 in West 2.9 mph 4 mph 89% 0 in 0 W/m2
03:53 54.3 °F 51.3 °F 30.1 in West 2.7 mph 3.5 mph 89% 0 in 0 W/m2
03:58 54.5 °F 51.3 °F 30.1 in West 2.1 mph 3.5 mph 89% 0 in 0 W/m2
04:04 54.7 °F 51.4 °F 30.1 in SW 1.5 mph 3.5 mph 89% 0 in 0 W/m2
04:08 54.7 °F 51.4 °F 30.1 in SW 1.9 mph 3.5 mph 89% 0 in 0 W/m2
04:14 54.5 °F 51.4 °F 30.1 in WSW 2.1 mph 4 mph 89% 0 in 0 W/m2
04:18 54.7 °F 51.6 °F 30.1 in SW 2.3 mph 4 mph 89% 0 in 0 W/m2
04:24 54.9 °F 51.6 °F 30.1 in WSW 1.8 mph 4 mph 89% 0 in 0 W/m2
04:28 54.9 °F 51.6 °F 30.1 in WSW 1.7 mph 4 mph 89% 0 in 0 W/m2
04:34 54.7 °F 51.4 °F 30.1 in WSW 2.2 mph 3.5 mph 89% 0 in 0 W/m2
04:38 54.5 °F 51.3 °F 30.1 in SW 2.1 mph 3.5 mph 89% 0 in 0 W/m2
04:44 54.3 °F 51.3 °F 30.1 in SW 1.3 mph 3.5 mph 89% 0 in 0 W/m2
04:48 54.3 °F 51.1 °F 30.1 in SW 1.2 mph 3.5 mph 89% 0 in 0 W/m2
04:54 54.1 °F 51.3 °F 30.1 in SW 2.4 mph 4 mph 90% 0 in 0 W/m2
04:56 54.1 °F 51.3 °F 30.1 in SW 3 mph 4 mph 90% 0 in 0 W/m2
05:04 54.1 °F 51.3 °F 30.1 in WSW 2.9 mph 3.5 mph 90% 0 in 0 W/m2
05:08 54 °F 51.1 °F 30.1 in WSW 2.7 mph 3.5 mph 90% 0 in 0 W/m2
05:13 53.8 °F 50.9 °F 30.1 in WSW 2.4 mph 4 mph 90% 0 in 0 W/m2
05:18 53.8 °F 50.7 °F 30.1 in SW 2.2 mph 4 mph 90% 0 in 0 W/m2
05:23 53.8 °F 50.9 °F 30.1 in SW 1.4 mph 3.5 mph 90% 0 in 0 W/m2
05:28 53.8 °F 50.9 °F 30.1 in WSW 0.4 mph 1.2 mph 90% 0 in 0 W/m2
05:33 53.8 °F 50.7 °F 30.1 in WSW 0.1 mph 1.2 mph 90% 0 in 0 W/m2
05:37 53.8 °F 50.7 °F 30.1 in WSW 0.1 mph 1.2 mph 90% 0 in 0 W/m2
05:43 53.4 °F 50.7 °F 30.1 in WSW 0.1 mph 1.2 mph 90.5% 0 in 0 W/m2
05:49 53.2 °F 50.5 °F 30.1 in WSW 0.1 mph 1.2 mph 91% 0 in 0 W/m2
05:54 53.1 °F 50.5 °F 30.1 in Calm   1 mph 91% 0 in 0 W/m2
05:58 53.1 °F 50.5 °F 30.1 in Calm   1.2 mph 91% 0 in 0 W/m2
06:03 52.9 °F 50.2 °F 30.1 in WSW 0.2 mph 1.2 mph 91% 0 in 0 W/m2
06:08 52.9 °F 50.2 °F 30.1 in West 0.4 mph 1.2 mph 91% 0 in 0 W/m2
06:13 52.9 °F 50.2 °F 30.1 in WNW 0.8 mph 2 mph 91% 0 in 0 W/m2
06:18 52.9 °F 50.2 °F 30.1 in WNW 1.2 mph 2.3 mph 91% 0 in 0 W/m2
06:23 52.7 °F 50 °F 30.1 in WNW 1.4 mph 2.3 mph 91% 0 in 0 W/m2
06:28 52.3 °F 49.8 °F 30.1 in West 1.2 mph 2.3 mph 91% 0 in 0 W/m2
06:33 52.2 °F 49.8 °F 30.1 in WNW 0.7 mph 2.3 mph 91.4% 0 in 0 W/m2
06:37 52.2 °F 50 °F 30.1 in WNW 0.6 mph 2.3 mph 92% 0 in 0 W/m2
06:42 52.2 °F 50 °F 30.1 in WNW 0.6 mph 2.3 mph 92% 0 in 0 W/m2
06:49 52.5 °F 50.2 °F 30.1 in NW 0.7 mph 2.3 mph 92% 0 in 0 W/m2
06:52 52.5 °F 50.4 °F 30.1 in NNW 0.7 mph 2.3 mph 92% 0 in 0 W/m2
06:57 52.5 °F 50.2 °F 30.1 in North 0.7 mph 2.3 mph 92% 0 in 0 W/m2
07:02 52.5 °F 50.2 °F 30.1 in NNE 0.8 mph 2.3 mph 92% 0 in 0 W/m2
07:08 52.7 °F 50.4 °F 30.1 in NNE 0.8 mph 2.3 mph 92% 0 in 0 W/m2
07:13 52.7 °F 50.4 °F 30.1 in NNE 0.9 mph 2.3 mph 92% 0 in 0 W/m2
07:18 52.5 °F 50.2 °F 30.1 in NNE 1.2 mph 2.3 mph 92% 0 in 0 W/m2
07:24 52.5 °F 50.2 °F 30.1 in NNE 0.9 mph 2.3 mph 92% 0 in 0 W/m2
07:27 52.5 °F 50.4 °F 30.1 in NNE 0.6 mph 2.3 mph 92.5% 0 in 5 W/m2
07:34 52.5 °F 50.5 °F 30.1 in NNE 0.6 mph 2.3 mph 93% 0 in 5 W/m2
07:39 52.5 °F 50.5 °F 30.1 in NNE 0.4 mph 2.3 mph 93% 0 in 12 W/m2
07:44 52.7 °F 50.7 °F 30.1 in Calm   2 mph 93% 0 in 14 W/m2
07:48 52.9 °F 50.9 °F 30.1 in Calm     93% 0 in 19 W/m2
07:53 53.1 °F 50.9 °F 30.1 in Calm     93% 0 in 28 W/m2
07:58 53.1 °F 51.1 °F 30.1 in Calm     93% 0 in 28 W/m2
08:04 53.4 °F 51.4 °F 30.1 in Calm     93% 0 in 39 W/m2
08:08 53.6 °F 51.4 °F 30.1 in Calm     93% 0 in 39 W/m2
08:10 53.6 °F 51.6 °F 30.1 in Calm     93% 0 in 37 W/m2
08:18 53.6 °F 51.6 °F 30.1 in Calm     93% 0 in 37 W/m2
08:21 54 °F 51.6 °F 30.1 in Calm   1.2 mph 92% 0 in 53 W/m2
08:29 54.3 °F 52.2 °F 30.1 in NNW 0.2 mph 1.2 mph 92% 0 in 74 W/m2
08:33 54.7 °F 52.3 °F 30.1 in Calm   1.2 mph 92% 0 in 111 W/m2
08:36 55.2 °F 52.9 °F 30.1 in Calm     92% 0 in 111 W/m2
08:42 55.4 °F 52.7 °F 30.1 in Calm   1 mph 91% 0 in 76 W/m2
08:47 55.8 °F 53.2 °F 30.1 in Calm     91% 0 in 83 W/m2
08:54 56.1 °F 53.4 °F 30.1 in Calm     90.7% 0 in 100 W/m2
08:57 56.5 °F 53.4 °F 30.1 in Calm     90% 0 in 104 W/m2
09:02 56.5 °F 53.6 °F 30.1 in Calm     90% 0 in 104 W/m2
09:07 56.7 °F 53.4 °F 30.1 in Calm     89% 0 in 95 W/m2
09:14 56.7 °F 53.6 °F 30.1 in Calm     89.4% 0 in 95 W/m2
09:17 56.7 °F 53.8 °F 30.1 in Calm   1 mph 90% 0 in 104 W/m2
09:23 56.5 °F 53.6 °F 30.1 in ESE 0.1 mph 2.3 mph 90.2% 0 in 104 W/m2
09:29 56.7 °F 54 °F 30.1 in ESE 0.3 mph 2.3 mph 91% 0 in 95 W/m2
09:34 56.8 °F 54.3 °F 30.2 in SE 0.3 mph 3.5 mph 91% 0 in 367 W/m2
09:38 57.2 °F 54.3 °F 30.2 in SW 0.5 mph 3.5 mph 90% 0 in 367 W/m2
09:41 57.2 °F 54 °F 30.1 in SW 0.6 mph 3.5 mph 89.1% 0 in 107 W/m2
09:49 58.1 °F 54.9 °F 30.1 in SW 0.7 mph 4 mph 89% 0 in 357 W/m2
09:54 58.5 °F 55.2 °F 30.1 in SW 1.6 mph 4 mph 88.8% 0 in 383 W/m2
09:59 58.8 °F 55 °F 30.1 in SSW 0.9 mph 2.3 mph 87.5% 0 in 397 W/m2
10:04 59.2 °F 55.2 °F 30.1 in South 0.3 mph 2 mph 87% 0 in 397 W/m2
10:09 59.2 °F 55.2 °F 30.1 in SSW 0.5 mph 3 mph 86.7% 0 in 406 W/m2
10:13 60.1 °F 56.1 °F 30.1 in WSW 2 mph 3.5 mph 87% 0 in 406 W/m2
10:17 60.3 °F 56.5 °F 30.1 in WSW 2.2 mph 3.5 mph 87% 0 in 404 W/m2
10:24 61.2 °F 57 °F 30.1 in North 0.7 mph 3.5 mph 86% 0 in 445 W/m2
10:26 61.2 °F 57 °F 30.1 in NNE 0.4 mph 3 mph 86% 0 in 443 W/m2
10:34 61.3 °F 56.8 °F 30.1 in NE 0.2 mph 2.3 mph 85% 0 in 443 W/m2
10:39 62.1 °F 56.8 °F 30.1 in NNW 0.1 mph 1.2 mph 83.1% 0 in 439 W/m2
10:44 62.4 °F 57.2 °F 30.1 in NNE 0.1 mph 1.2 mph 82.8% 0 in 468 W/m2
10:48 63 °F 57.4 °F 30.1 in ENE 0.2 mph 1.2 mph 82.1% 0 in 468 W/m2
10:53 63.3 °F 57.9 °F 30.1 in ENE 0.3 mph 1.2 mph 82.3% 0 in 503 W/m2
10:57 64 °F 58.3 °F 30.1 in ESE 0.2 mph 1.2 mph 82.1% 0 in 503 W/m2
11:04 64.4 °F 58.8 °F 30.1 in ESE 0.8 mph 2.3 mph 82% 0 in 485 W/m2
11:09 64.2 °F 58.3 °F 30.1 in ESE 1.2 mph 6 mph 80.8% 0 in 524 W/m2
11:12 64.4 °F 58.3 °F 30.1 in NNE 2.8 mph 6 mph 80.5% 0 in 533 W/m2
11:19 64.6 °F 58.3 °F 30.1 in NW 3 mph 6 mph 80% 0 in 533 W/m2
11:21 66.2 °F 59.4 °F 30.1 in NE 1.6 mph 5.8 mph 78.4% 0 in 547 W/m2
11:28 66.2 °F 59.2 °F 30.1 in ENE 1.3 mph 6 mph 78% 0 in 547 W/m2
11:34 66.4 °F 59.2 °F 30.1 in ENE 1.3 mph 3 mph 78% 0 in 547 W/m2
11:39 66.6 °F 59.5 °F 30.1 in ESE 1.6 mph 3 mph 78% 0 in 573 W/m2
11:44 66.9 °F 59.4 °F 30.1 in South 1.2 mph 3.5 mph 76.9% 0 in 580 W/m2
11:48 66.9 °F 59.2 °F 30.1 in NNW 0.4 mph 3 mph 76% 0 in 585 W/m2
11:53 67.6 °F 60.1 °F 30.1 in ENE 0.4 mph 3.5 mph 76.8% 0 in 587 W/m2
11:57 68 °F 59.9 °F 30.1 in ESE 0.9 mph 3.5 mph 75.5% 0 in 596 W/m2
12:03 68 °F 60.1 °F 30.1 in SE 1.2 mph 3.5 mph 76% 0 in 596 W/m2
12:09 68 °F 60.3 °F 30.1 in SE 1.2 mph 3.5 mph 76% 0 in 596 W/m2
12:11 69.1 °F 60.4 °F 30.1 in NNE 1.5 mph 3.5 mph 74% 0 in 608 W/m2
12:18 69.3 °F 60.4 °F 30.1 in NNE 1.4 mph 3.5 mph 73.8% 0 in 613 W/m2
12:22 69.3 °F 60.3 °F 30.1 in East 1.4 mph 3.5 mph 73% 0 in 613 W/m2
12:29 69.3 °F 60.3 °F 30.1 in ENE 1.4 mph 3.5 mph 73% 0 in 621 W/m2
12:33 69.8 °F 60.8 °F 30.1 in North 1.6 mph 3.5 mph 72.8% 0 in 624 W/m2
12:38 70.3 °F 60.6 °F 30.1 in WNW 1.8 mph 3.5 mph 71.5% 0 in 628 W/m2
12:44 70.3 °F 59.9 °F 30.1 in WSW 2.2 mph 3.5 mph 69.6% 0 in 629 W/m2
12:46 70.3 °F 60.1 °F 30.1 in SSW 2.4 mph 3.5 mph 70.1% 0 in 629 W/m2
12:53 70.5 °F 60.1 °F 30.1 in SW 2.4 mph 5 mph 69.6% 0 in 629 W/m2
12:57 71.2 °F 60.3 °F 30.1 in WNW 2.5 mph 5 mph 68.5% 0 in 640 W/m2
13:04 71.2 °F 60.1 °F 30.1 in WNW 2.4 mph 5 mph 68.1% 0 in 642 W/m2
13:07 71.4 °F 60.4 °F 30.1 in West 2.1 mph 5 mph 68.5% 0 in 643 W/m2
13:13 71.4 °F 59.9 °F 30.1 in SSW 2.3 mph 5 mph 67.1% 0 in 640 W/m2
13:18 71.4 °F 59.5 °F 30.1 in SSW 2.1 mph 6 mph 66.4% 0 in 640 W/m2
13:24 71.6 °F 59.9 °F 30.1 in SSW 2.7 mph 6 mph 66.7% 0 in 640 W/m2
13:27 71.8 °F 59.7 °F 30.1 in SW 2.8 mph 6 mph 66% 0 in 638 W/m2
13:31 72.7 °F 59.7 °F 30.1 in WNW 1 mph 5.8 mph 64% 0 in 642 W/m2
13:36 72.9 °F 60.3 °F 30.1 in WNW 2.1 mph 4 mph 64.8% 0 in 642 W/m2
13:41 73 °F 59.5 °F 30.1 in West 4.2 mph 6 mph 62.5% 0 in 636 W/m2
13:46 73 °F 59.7 °F 30.1 in West 4.5 mph 6 mph 63% 0 in 629 W/m2
13:53 73 °F 59.7 °F 30.1 in West 4.5 mph 6 mph 63% 0 in 629 W/m2
13:58 73.4 °F 60.3 °F 30.1 in NW 4.5 mph 5.8 mph 63.4% 0 in 631 W/m2
14:00 73.2 °F 59.7 °F 30.1 in WNW 5 mph 6 mph 63% 0 in 626 W/m2
14:06 73.8 °F 60.8 °F 30.1 in North 4.5 mph 6 mph 64% 0 in 626 W/m2
14:13 73.6 °F 60.1 °F 30.1 in NE 4.1 mph 6 mph 62.7% 0 in 613 W/m2
14:18 73.9 °F 60.1 °F 30.1 in WNW 3.2 mph 6 mph 62% 0 in 610 W/m2
14:22 74.1 °F 60.3 °F 30.1 in West 2.5 mph 3.5 mph 62% 0 in 610 W/m2
14:27 74.3 °F 61.3 °F 30.1 in WNW 2.4 mph 3.5 mph 63.7% 0 in 606 W/m2
14:33 74.5 °F 60.6 °F 30.1 in SW 2.5 mph 3.5 mph 61.8% 0 in 605 W/m2
14:38 73.9 °F 59.9 °F 30.1 in SSW 2.5 mph 3.5 mph 61.5% 0 in 594 W/m2
14:43 73.9 °F 60.4 °F 30.1 in South 2.6 mph 3.5 mph 63% 0 in 585 W/m2
14:48 73.8 °F 60.4 °F 30.1 in South 2.5 mph 3.5 mph 63% 0 in 585 W/m2
14:54 73.8 °F 60.1 °F 30.1 in SE 2.3 mph 4 mph 62.4% 0 in 577 W/m2
14:57 73.9 °F 60.3 °F 30.1 in SSE 2.1 mph 3.5 mph 62.5% 0 in 568 W/m2
15:04 74.3 °F 60.8 °F 30.1 in SSW 1.8 mph 4 mph 62.8% 0 in 559 W/m2
15:08 74.8 °F 60.6 °F 30.1 in SSW 2 mph 4 mph 61.4% 0 in 554 W/m2
15:14 74.8 °F 61 °F 30.1 in SSW 2.3 mph 4 mph 62% 0 in 545 W/m2
15:17 74.5 °F 60.6 °F 30.1 in SSE 2.4 mph 4 mph 62% 0 in 536 W/m2
15:22 74.5 °F 60.8 °F 30.1 in East 2.3 mph 4 mph 62.4% 0 in 529 W/m2
15:27 75.2 °F 61.2 °F 30.1 in West 2.4 mph 4 mph 61.8% 0 in 513 W/m2
15:33 75.4 °F 60.6 °F 30.1 in NW 2.5 mph 5 mph 60.3% 0 in 506 W/m2
15:39 75 °F 61 °F 30.1 in SW 2.7 mph 5 mph 61.6% 0 in 497 W/m2
15:41 75.4 °F 61 °F 30.1 in SW 3 mph 5 mph 61% 0 in 485 W/m2
15:46 75.4 °F 61 °F 30.1 in SW 3 mph 5 mph 61% 0 in 485 W/m2
15:53 75 °F 60.6 °F 30.1 in SSW 3 mph 5 mph 61% 0 in 485 W/m2
15:58 75 °F 60.8 °F 30 in WSW 2.4 mph 5 mph 61.2% 0 in 462 W/m2
16:04 75 °F 60.6 °F 30 in West 2 mph 5 mph 61% 0 in 450 W/m2
16:08 75.6 °F 61.2 °F 30 in SW 1.9 mph 4 mph 61% 0 in 450 W/m2
16:14 75.7 °F 61.3 °F 30 in SSW 2.5 mph 6 mph 61% 0 in 425 W/m2
16:18 75.6 °F 61.5 °F 30 in SSW 4.5 mph 7 mph 61.9% 0 in 411 W/m2
16:23 75.4 °F 61.5 °F 30 in SSW 4.9 mph 7 mph 62% 0 in 406 W/m2
16:28 75.4 °F 61.3 °F 30 in SSE 4.5 mph 7 mph 61.6% 0 in 392 W/m2
16:34 75.6 °F 62.1 °F 30 in West 4.2 mph 6.9 mph 63% 0 in 378 W/m2
16:39 75.7 °F 61.7 °F 30 in SW 2.8 mph 6.9 mph 61.9% 0 in 371 W/m2
16:42 75.6 °F 61.3 °F 30 in NW 2.2 mph 4 mph 61.4% 0 in 350 W/m2
16:49 76.3 °F 61.5 °F 30 in WNW 2.9 mph 4 mph 60.5% 0 in 345 W/m2
16:52 76.1 °F 61.7 °F 30 in West 2.8 mph 5 mph 61% 0 in 322 W/m2
16:58 75.9 °F 61.7 °F 30 in WSW 3.2 mph 5 mph 61.6% 0 in 313 W/m2
17:02 75.7 °F 61.9 °F 30 in WNW 3.6 mph 5 mph 62% 0 in 287 W/m2
17:09 75.6 °F 61.7 °F 30 in SW 3.4 mph 5 mph 62.2% 0 in 276 W/m2
17:13 75.2 °F 61.7 °F 30 in South 3.4 mph 6 mph 63% 0 in 255 W/m2
17:18 75 °F 61.2 °F 30 in SSW 3.8 mph 5.8 mph 62% 0 in 253 W/m2
17:20 74.7 °F 61.3 °F 30 in SSW 3.6 mph 5.8 mph 62.9% 0 in 253 W/m2
17:54 74.7 °F 61.5 °F 30 in SW 4.2 mph 7 mph 64% 0 in 142 W/m2
17:59 74.5 °F 61.9 °F 30 in SSW 2.5 mph 4.6 mph 65% 0 in 127 W/m2
18:00 74.8 °F 61.9 °F 30 in SW 1.7 mph 6 mph 64% 0 in 221 W/m2
18:09 74.5 °F 61.9 °F 30 in North 2.3 mph 3.5 mph 65% 0 in 0 W/m2
18:13 74.5 °F 61.9 °F 30 in North 2.3 mph 3.5 mph 65% 0 in 0 W/m2
18:18 74.5 °F 61.9 °F 30 in North 2.3 mph 3.5 mph 65% 0 in 0 W/m2
18:34 71.1 °F 62.4 °F 30 in SSW 0.8 mph 2.3 mph 74.2% 0 in 16 W/m2
18:39 70.9 °F 62.2 °F 30 in SW 0.1 mph 2.3 mph 74% 0 in 49 W/m2
18:44 70.3 °F 62.4 °F 30 in Calm     75.9% 0 in 12 W/m2
18:49 69.8 °F 62.2 °F 30 in Calm     77% 0 in 11 W/m2
18:54 69.4 °F 61.9 °F 30 in Calm     77.3% 0 in 7 W/m2
18:59 68.9 °F 61.9 °F 30 in Calm     78.3% 0 in 0 W/m2
19:04 68.4 °F 61.5 °F 30 in Calm     79% 0 in 0 W/m2
19:09 68 °F 61.7 °F 30 in Calm     80.1% 0 in 0 W/m2
19:14 67.6 °F 61.5 °F 30 in Calm     81% 0 in 0 W/m2
19:19 67.1 °F 61.3 °F 30 in Calm     81.3% 0 in 0 W/m2
19:24 66.9 °F 61.2 °F 30 in Calm     82% 0 in 0 W/m2
19:29 66.7 °F 61.2 °F 30 in Calm     82.5% 0 in 0 W/m2
19:34 66.4 °F 61.2 °F 30 in Calm     83% 0 in 0 W/m2
19:39 66 °F 60.8 °F 30 in SE 1.4 mph 4 mph 83% 0 in 0 W/m2
19:44 65.8 °F 60.4 °F 30 in SE 1.6 mph 4 mph 83.2% 0 in 0 W/m2
19:49 65.5 °F 60.4 °F 30 in SE 0.4 mph 3 mph 83.7% 0 in 0 W/m2
19:54 65.1 °F 60.4 °F 30 in Calm   2 mph 84.7% 0 in 0 W/m2
19:59 64.9 °F 60.4 °F 30 in Calm     85% 0 in 0 W/m2
20:04 64.9 °F 60.3 °F 30 in Calm     85% 0 in 0 W/m2
20:09 64.8 °F 60.4 °F 30 in Calm     85.8% 0 in 0 W/m2
20:14 64.8 °F 60.4 °F 30 in Calm     86% 0 in 0 W/m2
20:19 64.4 °F 60.1 °F 30 in Calm     86.1% 0 in 0 W/m2
20:24 64.2 °F 60.3 °F 30 in Calm     87% 0 in 0 W/m2
20:29 64 °F 60.1 °F 30 in ENE 0.8 mph 2.3 mph 86.8% 0 in 0 W/m2
20:34 63.9 °F 59.9 °F 30 in NE 0.4 mph 2.3 mph 87% 0 in 0 W/m2
20:39 64 °F 60.1 °F 30 in Calm   2 mph 87% 0 in 0 W/m2
20:44 63.9 °F 59.9 °F 30 in Calm     87% 0 in 0 W/m2
20:49 63.7 °F 59.7 °F 30 in Calm     87% 0 in 0 W/m2
20:54 63.5 °F 59.9 °F 30 in ENE 0.8 mph 2.3 mph 87.8% 0 in 0 W/m2
20:59 63.3 °F 59.7 °F 30 in SE 1.3 mph 3 mph 87.7% 0 in 0 W/m2
21:04 63.1 °F 59.5 °F 30 in SSE 1.1 mph 3.5 mph 88% 0 in 0 W/m2
21:09 63 °F 59.4 °F 30 in SSE 1.4 mph 3 mph 88.2% 0 in 0 W/m2
21:14 62.8 °F 59.4 °F 30 in SSE 1.4 mph 2.3 mph 88.3% 0 in 0 W/m2
21:19 62.8 °F 59.4 °F 30 in SSE 1.4 mph 2.3 mph 89% 0 in 0 W/m2
21:24 62.6 °F 59.4 °F 30 in SSE 0.3 mph 2.3 mph 89% 0 in 0 W/m2
21:29 62.8 °F 59.4 °F 30 in Calm   2 mph 89% 0 in 0 W/m2
21:34 62.8 °F 59.4 °F 30 in Calm     89% 0 in 0 W/m2
21:39 62.8 °F 59.4 °F 30 in Calm     89% 0 in 0 W/m2
21:44 62.6 °F 59.4 °F 30 in Calm     89% 0 in 0 W/m2
21:49 62.4 °F 59.2 °F 30 in Calm     89% 0 in 0 W/m2
21:54 62.4 °F 59.2 °F 30 in Calm     89% 0 in 0 W/m2
21:59 62.4 °F 59.2 °F 30 in Calm     89% 0 in 0 W/m2
22:04 62.4 °F 59 °F 30 in SW 0.8 mph 2.3 mph 89% 0 in 0 W/m2
22:09 62.2 °F 58.8 °F 30 in WSW 0.2 mph 2.3 mph 89% 0 in 0 W/m2
22:14 62.1 °F 58.8 °F 30 in Calm   2 mph 89% 0 in 0 W/m2
22:19 62.2 °F 58.8 °F 30 in Calm     89% 0 in 0 W/m2
22:24 62.4 °F 59 °F 30 in Calm   1 mph 89.1% 0 in 0 W/m2
22:29 62.6 °F 59.2 °F 30 in WSW 0.9 mph 2.3 mph 89% 0 in 0 W/m2
22:34 62.6 °F 59.4 °F 30 in WSW 1.4 mph 2.3 mph 89% 0 in 0 W/m2
22:39 62.8 °F 59.4 °F 30 in WSW 0.2 mph 1.2 mph 88.8% 0 in 0 W/m2
22:44 62.8 °F 59.5 °F 30 in Calm   1 mph 89% 0 in 0 W/m2
22:49 62.8 °F 59.5 °F 30 in Calm     89% 0 in 0 W/m2
22:54 62.8 °F 59.5 °F 30 in Calm     89% 0 in 0 W/m2
22:59 63 °F 59.5 °F 30 in WSW 0.1 mph 1.2 mph 89% 0 in 0 W/m2
23:04 63 °F 59.5 °F 30 in Calm   1 mph 89% 0 in 0 W/m2
23:09 63 °F 59.5 °F 30 in Calm     89% 0 in 0 W/m2
23:14 63 °F 59.5 °F 30 in Calm     89% 0 in 0 W/m2
23:19 63 °F 59.5 °F 30 in SSE 2.6 mph 8.1 mph 89% 0 in 0 W/m2
23:24 62.6 °F 59.5 °F 30 in ENE 2.7 mph 8.1 mph 89.7% 0 in 0 W/m2
23:29 62.4 °F 59.5 °F 30 in ENE 2.9 mph 8 mph 90% 0 in 0 W/m2
23:34 62.6 °F 59.4 °F 30 in ENE 2.8 mph 7 mph 89.4% 0 in 0 W/m2
23:39 62.4 °F 59 °F 30 in ENE 1.7 mph 7 mph 89% 0 in 0 W/m2
23:44 62.2 °F 59.2 °F 30 in ENE 4.7 mph 7 mph 89.8% 0 in 0 W/m2
23:49 62.6 °F 59.2 °F 30 in ENE 4.4 mph 7 mph 89% 0 in 0 W/m2
23:54 62.8 °F 59.2 °F 30 in ENE 1.1 mph 7 mph 88% 0 in 0 W/m2
23:59 62.8 °F 59.2 °F 30 in NE 2.8 mph 5 mph 88% 0 in 0 W/m2
Stazione Meteorologica MeteoMincio Rivalta s/M (MN)
Con i complimenti di Weather Underground - 4 mb


METEO PILLOLE
Il più lungo periodo di temperature stabili
Garapan, Isola di Sarapan - Marianne settentrionali
Dal 1927 al 1935 la temperatura non è mai salita sopra 31°C e mai scesa sotto i 19,5°C.

Do NOT follow this link or you will be banned from the site!